Time;durP1;ratioP1;P1;durP2;ratioP2;P2;SDS_P1;SDS_P2;PMS_P1;PMS_P2;Temp;Humidity;BMP_temperature;BMP_pressure;BME280_temperature;BME280_humidity;BME280_pressure;Samples;Min_cycle;Max_cycle;Signal;HPM_P1;HPM_P2
2022/09/17 00:01:59;;;;;;;11.68;2.22;;;;;;;9.10;100.00;101553.13;5095777;28;20050;-80
2022/09/17 00:04:24;;;;;;;11.23;1.75;;;;;;;9.09;100.00;101550.59;5077035;28;20027;-89
2022/09/17 00:06:50;;;;;;;13.68;1.70;;;;;;;9.08;100.00;101555.06;5095923;28;20395;-89
2022/09/17 00:09:15;;;;;;;9.23;1.35;;;;;;;9.09;100.00;101554.13;5095855;28;20024;-93
2022/09/17 00:11:42;;;;;;;11.82;1.58;;;;;;;9.08;100.00;101552.41;5095292;28;20024;-89
2022/09/17 00:14:13;;;;;;;12.93;1.90;;;;;;;9.13;100.00;101550.25;5096617;28;20487;-92
2022/09/17 00:16:41;;;;;;;15.63;1.75;;;;;;;9.21;100.00;101548.84;5096921;28;20048;-87
2022/09/17 00:19:12;;;;;;;12.60;2.30;;;;;;;9.37;100.00;101560.03;5094892;28;20035;-86
2022/09/17 00:21:39;;;;;;;15.02;2.70;;;;;;;9.53;100.00;101562.41;5095222;28;20341;-86
2022/09/17 00:24:05;;;;;;;10.90;1.65;;;;;;;9.63;100.00;101565.22;5094753;28;20024;-90
2022/09/17 00:26:32;;;;;;;13.35;2.33;;;;;;;9.69;100.00;101554.97;5094461;28;20024;-81
2022/09/17 00:28:58;;;;;;;14.50;3.00;;;;;;;9.74;100.00;101572.41;5094339;28;20488;-84
2022/09/17 00:31:24;;;;;;;11.82;2.47;;;;;;;9.75;100.00;101568.75;5094339;28;20359;-84
2022/09/17 00:33:50;;;;;;;10.73;1.80;;;;;;;9.74;100.00;101573.25;5094000;28;20024;-83
2022/09/17 00:36:16;;;;;;;12.82;1.90;;;;;;;9.70;100.00;101567.31;5094701;28;20447;-88
2022/09/17 00:38:42;;;;;;;13.70;2.05;;;;;;;9.69;100.00;101564.78;5076210;28;20039;-84
2022/09/17 00:41:08;;;;;;;16.38;2.13;;;;;;;9.66;100.00;101554.38;5076439;28;20356;-86
2022/09/17 00:43:42;;;;;;;11.73;1.83;;;;;;;9.63;100.00;101541.31;5075854;28;20077;-85
2022/09/17 00:46:23;;;;;;;11.45;1.80;;;;;;;9.58;100.00;101540.81;5093956;28;20046;-84
2022/09/17 00:48:49;;;;;;;14.85;2.00;;;;;;;9.51;100.00;101545.75;5076135;28;20040;-88
2022/09/17 00:51:19;;;;;;;17.35;2.63;;;;;;;9.50;100.00;101544.88;5094102;28;20028;-86
2022/09/17 00:53:45;;;;;;;21.15;3.33;;;;;;;9.50;100.00;101550.19;5094327;28;20035;-86
2022/09/17 00:56:22;;;;;;;15.75;2.15;;;;;;;9.58;100.00;101541.66;5093897;28;20031;-83
2022/09/17 00:58:49;;;;;;;12.98;2.42;;;;;;;9.70;100.00;101555.81;5093965;28;20447;-89
2022/09/17 01:01:15;;;;;;;7.20;1.92;;;;;;;9.89;100.00;101542.81;5093722;28;20020;-84
2022/09/17 01:03:40;;;;;;;20.50;2.13;;;;;;;9.97;100.00;101533.41;5094048;28;20145;-82
2022/09/17 01:06:24;;;;;;;8.68;1.80;;;;;;;10.06;100.00;101546.00;5094328;28;20466;-85
2022/09/17 01:09:33;;;;;;;12.02;1.95;;;;;;;10.09;100.00;101542.25;5094182;28;20031;-84
2022/09/17 01:12:26;;;;;;;12.60;2.15;;;;;;;10.22;100.00;101546.50;5094804;28;20474;-79
2022/09/17 01:15:29;;;;;;;7.25;1.80;;;;;;;10.32;100.00;101543.16;5094134;28;20282;-82
2022/09/17 01:18:07;;;;;;;19.15;1.98;;;;;;;10.47;100.00;101543.78;5094139;28;20028;-83
2022/09/17 01:21:03;;;;;;;11.18;2.92;;;;;;;10.58;100.00;101557.06;5094715;28;20034;-89
2022/09/17 01:23:38;;;;;;;18.13;2.20;;;;;;;10.62;100.00;101547.88;5099175;28;20028;-87
2022/09/17 01:26:12;;;;;;;19.05;2.80;;;;;;;10.67;100.00;101544.84;5098728;28;20032;-80
2022/09/17 01:29:16;;;;;;;17.00;2.08;;;;;;;10.66;100.00;101549.34;5099651;28;20032;-83
2022/09/17 01:31:53;;;;;;;14.23;1.83;;;;;;;10.68;100.00;101559.88;5067383;28;20036;-81
2022/09/17 01:34:35;;;;;;;11.70;2.47;;;;;;;10.70;100.00;101550.78;5098863;28;20026;-85
2022/09/17 01:37:38;;;;;;;16.63;2.25;;;;;;;10.73;100.00;101557.66;5097900;28;20058;-81
2022/09/17 01:40:14;;;;;;;22.58;2.72;;;;;;;10.76;100.00;101555.63;5088247;28;20036;-78
2022/09/17 01:42:55;;;;;;;11.93;1.92;;;;;;;10.79;100.00;101559.84;5097413;28;20050;-81
2022/09/17 01:45:34;;;;;;;17.05;2.60;;;;;;;10.77;100.00;101567.94;5097416;28;20375;-81
2022/09/17 01:48:06;;;;;;;12.63;2.22;;;;;;;10.72;100.00;101558.66;5097630;28;20019;-81
2022/09/17 01:51:04;;;;;;;18.10;2.25;;;;;;;10.69;100.00;101561.53;5097871;28;20048;-81
2022/09/17 01:53:52;;;;;;;13.57;1.73;;;;;;;10.66;98.69;101570.63;5097378;28;20031;-79
2022/09/17 01:56:23;;;;;;;16.67;2.65;;;;;;;10.65;96.85;101562.78;5097189;28;20028;-80
2022/09/17 01:59:01;;;;;;;8.45;1.65;;;;;;;10.65;95.41;101568.09;5097108;28;20080;-81
2022/09/17 02:01:30;;;;;;;10.10;1.58;;;;;;;10.75;93.35;101567.22;5097667;28;20020;-85
2022/09/17 02:04:02;;;;;;;12.50;2.15;;;;;;;10.87;92.42;101570.72;5096527;28;20016;-82
2022/09/17 02:06:33;;;;;;;14.88;2.10;;;;;;;10.89;91.89;101570.59;5097717;28;20024;-80
2022/09/17 02:09:21;;;;;;;17.75;2.15;;;;;;;10.87;92.67;101569.91;5097117;28;20034;-81
2022/09/17 02:11:57;;;;;;;18.48;1.98;;;;;;;10.84;92.08;101584.28;5097429;28;20052;-81
2022/09/17 02:14:36;;;;;;;11.82;2.03;;;;;;;10.83;93.46;101571.94;5097130;28;20035;-85
2022/09/17 02:17:11;;;;;;;8.00;1.85;;;;;;;10.84;93.83;101570.97;5096847;28;20133;-81
2022/09/17 02:19:39;;;;;;;15.35;1.92;;;;;;;10.85;94.10;101574.47;5096964;28;20042;-80
2022/09/17 02:22:07;;;;;;;10.88;1.92;;;;;;;10.80;94.33;101577.50;5096523;28;20081;-81
2022/09/17 02:25:03;;;;;;;16.30;2.00;;;;;;;10.79;92.51;101581.13;5096818;28;20074;-80
2022/09/17 02:27:56;;;;;;;12.05;1.92;;;;;;;10.81;94.14;101581.88;5096460;28;20054;-83
2022/09/17 02:30:22;;;;;;;20.00;4.18;;;;;;;10.75;94.79;101577.03;5096771;28;20073;-82
2022/09/17 02:32:47;;;;;;;10.80;1.92;;;;;;;10.77;96.83;101586.56;5077652;28;20032;-81
2022/09/17 02:35:14;;;;;;;11.13;1.92;;;;;;;10.78;97.47;101584.78;5096293;28;20140;-82
2022/09/17 02:37:41;;;;;;;11.52;2.08;;;;;;;10.71;97.12;101584.41;5096123;28;20063;-81
2022/09/17 02:40:07;;;;;;;15.10;1.65;;;;;;;10.61;97.24;101580.78;5096123;28;20521;-80
2022/09/17 02:42:55;;;;;;;11.48;1.58;;;;;;;10.53;97.67;101580.56;5096204;28;20032;-80
2022/09/17 02:45:33;;;;;;;9.95;1.90;;;;;;;10.46;99.09;101585.50;5096775;28;20020;-81
2022/09/17 02:48:11;;;;;;;11.98;2.50;;;;;;;10.36;100.00;101580.06;5096027;28;20058;-81
2022/09/17 02:51:01;;;;;;;14.90;1.98;;;;;;;10.29;100.00;101585.94;5096081;28;20044;-87
2022/09/17 02:53:41;;;;;;;18.70;2.95;;;;;;;10.34;97.95;101591.78;5096256;28;20077;-83
2022/09/17 02:56:18;;;;;;;14.00;2.85;;;;;;;10.40;94.97;101591.28;5079602;28;20040;-84
2022/09/17 02:59:00;;;;;;;7.30;1.60;;;;;;;10.41;93.92;101599.16;5095841;28;20482;-80
2022/09/17 03:01:35;;;;;;;8.20;1.55;;;;;;;10.37;93.59;101586.22;5096119;28;20024;-83
2022/09/17 03:04:04;;;;;;;11.35;1.75;;;;;;;10.34;93.94;101592.59;5095471;28;20452;-81
2022/09/17 03:06:30;;;;;;;8.05;1.73;;;;;;;10.33;94.44;101584.72;5096199;28;20016;-83
2022/09/17 03:08:56;;;;;;;10.82;1.75;;;;;;;10.28;96.05;101594.88;5096404;28;20031;-85
2022/09/17 03:11:21;;;;;;;10.63;1.95;;;;;;;10.27;95.47;101586.06;5095891;28;20067;-82
2022/09/17 03:13:47;;;;;;;9.80;1.77;;;;;;;10.31;95.40;101579.53;5077624;28;20035;-84
2022/09/17 03:16:13;;;;;;;13.63;2.05;;;;;;;10.37;95.11;101587.06;5095505;28;20317;-82
2022/09/17 03:18:38;;;;;;;16.05;2.28;;;;;;;10.53;94.55;101589.38;5095976;28;20103;-83
2022/09/17 03:21:03;;;;;;;15.02;2.22;;;;;;;10.56;94.90;101591.78;5095506;28;20040;-83
2022/09/17 03:23:29;;;;;;;14.32;2.55;;;;;;;10.56;94.57;101591.78;5095139;28;20038;-86
2022/09/17 03:25:54;;;;;;;9.13;1.60;;;;;;;10.60;93.64;101584.44;5077013;28;20425;-84
2022/09/17 03:28:20;;;;;;;7.57;1.30;;;;;;;10.61;93.81;101577.28;5095561;28;20039;-83
2022/09/17 03:30:46;;;;;;;9.20;1.52;;;;;;;10.57;93.64;101568.72;5095210;28;20351;-83
2022/09/17 03:33:11;;;;;;;8.18;1.73;;;;;;;10.57;92.05;101576.69;5095585;28;20367;-88
2022/09/17 03:35:37;;;;;;;10.80;1.52;;;;;;;10.61;91.68;101571.97;5095405;28;20028;-82
2022/09/17 03:38:03;;;;;;;7.03;1.27;;;;;;;10.64;88.56;101571.72;5098324;28;20032;-86
2022/09/17 03:40:28;;;;;;;9.43;1.73;;;;;;;10.65;87.98;101570.75;5097388;28;20460;-90
2022/09/17 03:42:55;;;;;;;8.40;1.77;;;;;;;10.64;88.08;101563.72;5097005;28;20459;-83
2022/09/17 03:45:20;;;;;;;13.93;1.73;;;;;;;10.76;87.09;101568.06;5096083;28;20383;-83
2022/09/17 03:47:45;;;;;;;8.10;1.30;;;;;;;10.78;88.42;101576.78;5095950;28;20468;-83
2022/09/17 03:50:11;;;;;;;16.65;1.95;;;;;;;10.76;89.98;101582.25;5096418;28;20039;-83
2022/09/17 03:52:36;;;;;;;11.23;1.92;;;;;;;10.71;90.56;101579.09;5095094;28;20107;-87
2022/09/17 03:55:02;;;;;;;19.65;2.03;;;;;;;10.67;89.86;101582.13;5095183;28;20490;-87
2022/09/17 03:57:27;;;;;;;15.70;2.00;;;;;;;10.65;89.47;101574.25;5077474;28;20024;-89
2022/09/17 03:59:53;;;;;;;10.18;1.75;;;;;;;10.69;86.87;101577.50;5095263;28;20104;-89
2022/09/17 04:02:18;;;;;;;8.88;1.52;;;;;;;10.68;87.99;101584.66;5094813;28;20070;-85
2022/09/17 04:04:43;;;;;;;6.20;1.50;;;;;;;10.68;85.21;101583.81;5094501;28;20028;-82
2022/09/17 04:07:09;;;;;;;11.52;1.80;;;;;;;10.70;84.76;101579.22;5076404;28;20520;-88
2022/09/17 04:09:34;;;;;;;8.00;1.35;;;;;;;10.73;83.81;101578.97;5095166;28;20431;-88
2022/09/17 04:12:00;;;;;;;9.98;1.55;;;;;;;10.76;83.65;101573.38;5094346;28;20032;-86
2022/09/17 04:14:25;;;;;;;9.48;1.23;;;;;;;10.76;83.99;101584.91;5094866;28;20109;-84
2022/09/17 04:16:51;;;;;;;8.63;1.35;;;;;;;10.80;83.79;101593.47;5094370;28;20363;-91
2022/09/17 04:19:16;;;;;;;13.20;1.63;;;;;;;10.79;81.42;101593.59;5094529;28;20061;-87
2022/09/17 04:21:42;;;;;;;5.72;1.25;;;;;;;10.89;80.18;101586.56;5095166;28;20035;-83
2022/09/17 04:24:07;;;;;;;9.07;1.10;;;;;;;10.94;81.30;101590.56;5094412;28;20115;-84
2022/09/17 04:26:33;;;;;;;7.68;1.30;;;;;;;10.95;82.99;101594.06;5076596;28;20028;-88
2022/09/17 04:28:58;;;;;;;6.78;1.60;;;;;;;10.94;83.42;101605.69;5094528;28;20031;-83
2022/09/17 04:31:25;;;;;;;12.07;1.75;;;;;;;11.00;84.86;101613.19;5095076;28;20027;-89
2022/09/17 04:33:51;;;;;;;9.10;1.42;;;;;;;11.04;86.81;101617.28;5094131;28;20094;-82
2022/09/17 04:36:16;;;;;;;7.60;1.30;;;;;;;10.93;87.87;101623.47;5094444;28;20038;-86
2022/09/17 04:38:42;;;;;;;14.68;1.67;;;;;;;10.79;91.52;101618.41;5095734;28;20024;-85
2022/09/17 04:41:07;;;;;;;8.25;1.77;;;;;;;10.69;92.85;101612.09;5095319;28;20073;-86
2022/09/17 04:43:33;;;;;;;15.63;1.33;;;;;;;10.59;92.86;101612.84;5094173;28;20035;-87
2022/09/17 04:45:58;;;;;;;7.70;1.48;;;;;;;10.47;93.41;101602.31;5093540;28;20080;-83
2022/09/17 04:48:24;;;;;;;8.52;1.17;;;;;;;10.32;93.55;101612.31;5093824;28;20031;-81
2022/09/17 04:50:49;;;;;;;15.23;1.13;;;;;;;10.20;93.64;101614.09;5094093;28;20079;-87
2022/09/17 04:53:14;;;;;;;8.95;1.33;;;;;;;10.11;93.28;101618.31;5075598;28;20031;-82
2022/09/17 04:55:41;;;;;;;8.68;1.20;;;;;;;10.06;91.98;101613.34;5093391;28;20032;-83
2022/09/17 04:58:07;;;;;;;7.78;1.55;;;;;;;10.03;92.20;101610.91;5093308;28;20059;-85
2022/09/17 05:00:34;;;;;;;8.95;1.70;;;;;;;9.99;92.37;101609.44;5058958;28;20032;-86
2022/09/17 05:02:59;;;;;;;7.05;1.90;;;;;;;9.95;93.04;101604.47;5075080;28;20024;-85
2022/09/17 05:05:25;;;;;;;8.30;1.35;;;;;;;9.94;93.00;101611.63;5093566;28;20053;-83
2022/09/17 05:07:50;;;;;;;9.35;1.20;;;;;;;9.96;93.64;101608.84;5094065;28;20065;-84
2022/09/17 05:10:17;;;;;;;9.95;1.45;;;;;;;10.00;95.18;101610.28;5093227;28;20063;-85
2022/09/17 05:12:54;;;;;;;7.90;1.15;;;;;;;10.02;96.68;101611.03;5093555;28;20185;-87
2022/09/17 05:15:20;;;;;;;5.22;1.30;;;;;;;10.07;97.91;101616.84;5075729;28;20089;-88
2022/09/17 05:17:46;;;;;;;8.93;1.35;;;;;;;10.10;98.99;101611.28;5093595;28;20506;-86
2022/09/17 05:20:13;;;;;;;9.63;1.10;;;;;;;10.12;100.00;101616.47;5093137;28;20029;-85
2022/09/17 05:22:52;;;;;;;11.95;1.67;;;;;;;10.12;99.27;101613.81;5093477;28;20088;-89
2022/09/17 05:25:23;;;;;;;7.75;1.05;;;;;;;10.12;97.68;101605.84;5093466;28;20028;-83
2022/09/17 05:27:50;;;;;;;6.03;1.20;;;;;;;10.14;96.42;101610.09;5093420;28;20028;-84
2022/09/17 05:30:16;;;;;;;12.65;1.23;;;;;;;10.18;95.84;101619.53;5093085;28;20452;-85
2022/09/17 05:32:42;;;;;;;6.80;1.15;;;;;;;10.23;95.34;101598.75;5093336;28;20024;-91
2022/09/17 05:35:09;;;;;;;10.77;1.35;;;;;;;10.34;93.34;101600.59;5075029;28;20066;-89
2022/09/17 05:37:35;;;;;;;8.23;1.38;;;;;;;10.40;93.50;101597.47;5093121;28;20027;-85
2022/09/17 05:40:02;;;;;;;11.15;1.20;;;;;;;10.46;90.72;101604.13;5093022;28;20530;-84
2022/09/17 05:42:27;;;;;;;14.18;1.52;;;;;;;10.48;89.58;101599.53;5093173;28;20103;-88
2022/09/17 05:44:53;;;;;;;6.25;1.08;;;;;;;10.50;87.76;101600.25;5093120;28;20071;-87
2022/09/17 05:47:18;;;;;;;4.68;1.13;;;;;;;10.55;85.96;101610.53;5092977;28;20385;-85
2022/09/17 05:49:44;;;;;;;15.80;1.52;;;;;;;10.61;85.73;101609.22;5092843;28;20078;-83
2022/09/17 05:52:10;;;;;;;6.82;1.95;;;;;;;10.70;86.28;101611.16;5092863;28;20472;-88
2022/09/17 05:54:36;;;;;;;10.30;1.13;;;;;;;10.82;86.91;101625.31;5093427;28;20024;-85
2022/09/17 05:57:01;;;;;;;6.72;1.42;;;;;;;10.89;88.20;101630.00;5092923;28;20470;-92
2022/09/17 05:59:26;;;;;;;9.82;1.85;;;;;;;10.98;89.77;101627.59;5093029;28;20032;-85
2022/09/17 06:01:52;;;;;;;10.27;1.73;;;;;;;10.92;91.59;101639.59;5075088;28;20116;-86
2022/09/17 06:04:17;;;;;;;15.82;1.67;;;;;;;10.88;91.47;101631.00;5092744;28;20032;-87
2022/09/17 06:06:43;;;;;;;7.57;1.75;;;;;;;10.84;93.70;101631.34;5093186;28;20387;-86
2022/09/17 06:09:09;;;;;;;8.77;1.40;;;;;;;10.80;95.29;101641.41;5077026;28;20055;-87
2022/09/17 06:11:35;;;;;;;17.13;1.77;;;;;;;10.71;98.91;101642.97;5078642;28;20028;-83
2022/09/17 06:14:01;;;;;;;11.43;1.63;;;;;;;10.51;100.00;101647.19;5096628;28;20024;-81
2022/09/17 06:16:26;;;;;;;12.93;1.83;;;;;;;10.31;100.00;101645.19;5078647;28;20024;-85
2022/09/17 06:18:52;;;;;;;15.63;1.63;;;;;;;10.16;100.00;101640.06;5097047;28;20376;-87
2022/09/17 06:21:18;;;;;;;13.20;2.25;;;;;;;10.05;100.00;101632.91;5098372;28;20340;-89
2022/09/17 06:23:44;;;;;;;10.27;1.70;;;;;;;9.99;100.00;101637.84;5096628;28;20042;-85
2022/09/17 06:26:10;;;;;;;8.77;1.40;;;;;;;10.03;100.00;101637.50;5096820;28;20114;-83
2022/09/17 06:28:36;;;;;;;12.00;1.58;;;;;;;10.11;100.00;101650.22;5096468;28;20028;-79
2022/09/17 06:31:04;;;;;;;6.55;1.17;;;;;;;10.21;100.00;101666.31;5096535;28;20035;-88
2022/09/17 06:33:31;;;;;;;7.88;1.90;;;;;;;10.37;100.00;101655.38;5096433;28;20031;-86
2022/09/17 06:36:01;;;;;;;10.82;1.75;;;;;;;10.47;100.00;101672.34;5078290;28;20036;-80
2022/09/17 06:38:28;;;;;;;7.47;1.30;;;;;;;10.51;100.00;101656.97;5096943;28;20027;-82
2022/09/17 06:40:53;;;;;;;10.65;1.77;;;;;;;10.47;100.00;101660.84;5096431;28;20048;-82
2022/09/17 06:43:20;;;;;;;9.55;1.30;;;;;;;10.38;100.00;101663.25;5096365;28;20085;-84
2022/09/17 06:45:58;;;;;;;5.88;1.10;;;;;;;10.33;100.00;101649.47;5097509;28;20032;-81
2022/09/17 06:48:25;;;;;;;11.77;1.90;;;;;;;10.34;100.00;101648.47;5096865;28;20374;-84
2022/09/17 06:50:53;;;;;;;11.82;1.63;;;;;;;10.48;100.00;101655.41;5062797;28;20043;-82
2022/09/17 06:53:23;;;;;;;13.00;1.85;;;;;;;10.75;100.00;101655.06;5095937;28;20040;-86
2022/09/17 06:55:49;;;;;;;15.93;1.98;;;;;;;10.91;100.00;101654.72;5096033;28;20028;-77
2022/09/17 06:58:14;;;;;;;12.75;2.20;;;;;;;10.72;100.00;101647.31;5095558;28;20113;-79
2022/09/17 07:00:40;;;;;;;13.88;1.85;;;;;;;10.52;100.00;101656.00;5095786;28;20067;-81
2022/09/17 07:03:05;;;;;;;12.63;1.70;;;;;;;10.34;100.00;101653.78;5096127;28;20440;-81
2022/09/17 07:05:31;;;;;;;14.00;1.90;;;;;;;10.23;100.00;101662.56;5095376;28;20032;-81
2022/09/17 07:08:00;;;;;;;14.50;1.98;;;;;;;10.14;100.00;101665.94;5095680;28;20056;-74
2022/09/17 07:10:26;;;;;;;11.35;1.38;;;;;;;10.09;100.00;101668.09;5095492;28;20016;-83
2022/09/17 07:12:52;;;;;;;6.60;1.30;;;;;;;10.03;100.00;101661.44;5095988;28;20099;-83
2022/09/17 07:15:18;;;;;;;9.90;1.63;;;;;;;10.04;100.00;101654.28;5095571;28;20393;-80
2022/09/17 07:17:44;;;;;;;9.00;1.50;;;;;;;10.07;100.00;101651.41;5095326;28;20081;-81
2022/09/17 07:20:10;;;;;;;12.07;1.25;;;;;;;10.19;100.00;101668.25;5095240;28;20032;-83
2022/09/17 07:22:35;;;;;;;6.82;1.02;;;;;;;10.33;100.00;101661.84;5077853;28;20052;-84
2022/09/17 07:25:01;;;;;;;12.43;1.55;;;;;;;10.44;100.00;101650.44;5095505;28;20062;-80
2022/09/17 07:27:27;;;;;;;8.57;1.30;;;;;;;10.58;100.00;101658.19;5095307;28;20031;-83
2022/09/17 07:29:53;;;;;;;4.93;1.00;;;;;;;10.85;100.00;101665.00;5095109;28;20052;-80
2022/09/17 07:32:18;;;;;;;7.50;0.82;;;;;;;11.07;100.00;101662.31;5077231;28;20317;-82
2022/09/17 07:34:43;;;;;;;2.00;0.70;;;;;;;11.17;98.13;101665.09;5095065;28;20368;-86
2022/09/17 07:37:09;;;;;;;7.50;1.10;;;;;;;11.25;97.20;101670.66;5095758;28;20474;-90
2022/09/17 07:39:34;;;;;;;7.90;1.40;;;;;;;11.35;100.00;101676.09;5094970;28;20035;-79
2022/09/17 07:41:59;;;;;;;7.47;1.27;;;;;;;11.38;98.29;101675.84;5095214;28;20360;-80
2022/09/17 07:44:25;;;;;;;8.27;1.00;;;;;;;11.37;97.74;101681.31;5076689;28;20107;-79
2022/09/17 07:46:50;;;;;;;9.80;1.45;;;;;;;11.33;97.56;101680.72;5095232;28;20059;-79
2022/09/17 07:49:16;;;;;;;4.55;1.02;;;;;;;11.31;98.70;101689.78;5095050;28;20048;-78
2022/09/17 07:51:41;;;;;;;6.35;0.82;;;;;;;11.30;98.33;101678.31;5094705;28;20036;-77
2022/09/17 07:54:06;;;;;;;4.88;1.13;;;;;;;11.32;98.61;101679.00;5095345;28;20025;-77
2022/09/17 07:56:32;;;;;;;4.63;1.00;;;;;;;11.36;99.16;101680.47;5076791;28;20085;-77
2022/09/17 07:58:57;;;;;;;8.70;1.20;;;;;;;11.51;100.00;101672.19;5094781;28;20028;-79
2022/09/17 08:01:23;;;;;;;4.28;1.13;;;;;;;11.70;100.00;101676.88;5095008;28;20136;-78
2022/09/17 08:03:53;;;;;;;6.65;1.13;;;;;;;11.90;100.00;101681.41;5076750;28;20054;-78
2022/09/17 08:06:21;;;;;;;3.40;0.95;;;;;;;12.16;97.04;101675.75;5094766;28;20024;-80
2022/09/17 08:08:47;;;;;;;8.82;1.38;;;;;;;12.75;94.64;101668.09;5094480;28;20031;-79
2022/09/17 08:11:20;;;;;;;8.93;1.10;;;;;;;13.43;92.89;101663.00;5094956;28;20023;-79
2022/09/17 08:13:50;;;;;;;10.63;0.93;;;;;;;13.84;89.26;101711.06;5076048;28;20165;-75
2022/09/17 08:16:16;;;;;;;9.73;1.40;;;;;;;12.96;96.85;101692.94;5094668;28;20055;-77
2022/09/17 08:18:42;;;;;;;4.78;0.70;;;;;;;11.93;100.00;101691.00;5093912;28;20124;-81
2022/09/17 08:21:11;;;;;;;3.90;1.02;;;;;;;11.10;100.00;101682.53;5094296;28;20030;-81
2022/09/17 08:23:38;;;;;;;7.65;1.20;;;;;;;10.56;100.00;101689.41;5094214;28;20024;-80
2022/09/17 08:26:07;;;;;;;10.10;1.33;;;;;;;10.23;100.00;101691.81;5093914;28;20062;-84
2022/09/17 08:28:33;;;;;;;9.15;1.73;;;;;;;10.12;100.00;101690.94;5094064;28;20016;-78
2022/09/17 08:31:07;;;;;;;8.38;1.25;;;;;;;10.44;100.00;101693.03;5093215;28;20357;-79
2022/09/17 08:33:37;;;;;;;9.82;1.17;;;;;;;11.12;100.00;101688.56;5095029;28;20028;-79
2022/09/17 08:36:03;;;;;;;5.28;1.02;;;;;;;11.89;100.00;101685.03;5095299;28;20385;-80
2022/09/17 08:38:32;;;;;;;5.63;1.40;;;;;;;12.84;100.00;101694.84;5094020;28;20124;-78
2022/09/17 08:41:04;;;;;;;8.63;1.35;;;;;;;13.71;100.00;101684.59;5075937;28;20141;-76
2022/09/17 08:43:32;;;;;;;4.22;1.40;;;;;;;14.58;95.50;101686.34;5094175;28;20035;-79
2022/09/17 08:45:58;;;;;;;1.60;0.55;;;;;;;15.44;89.28;101688.00;5094726;28;20036;-79
2022/09/17 08:48:40;;;;;;;6.47;1.13;;;;;;;15.60;83.13;101686.50;5096403;28;20050;-79
2022/09/17 08:51:24;;;;;;;4.43;0.70;;;;;;;14.91;80.06;101684.19;5094418;28;20063;-79
2022/09/17 08:54:08;;;;;;;4.65;0.93;;;;;;;14.76;84.84;101697.22;5077698;28;20016;-76
2022/09/17 08:56:36;;;;;;;4.20;0.90;;;;;;;16.03;82.15;101690.28;5094340;28;20103;-78
2022/09/17 08:59:07;;;;;;;7.45;1.10;;;;;;;16.61;79.56;101693.44;5093991;28;20028;-80
2022/09/17 09:01:49;;;;;;;2.58;0.73;;;;;;;16.78;75.49;101692.53;5094535;28;20060;-83
2022/09/17 09:04:29;;;;;;;9.13;1.35;;;;;;;15.80;79.06;101695.28;5094225;28;20032;-81
2022/09/17 09:07:01;;;;;;;5.30;1.27;;;;;;;14.78;85.85;101697.06;5093898;28;20361;-78
2022/09/17 09:09:34;;;;;;;4.72;1.10;;;;;;;14.06;91.01;101697.44;5094855;28;20074;-80
2022/09/17 09:12:05;;;;;;;8.40;1.35;;;;;;;15.24;89.62;101687.28;5094205;28;20032;-78
2022/09/17 09:14:36;;;;;;;6.15;1.33;;;;;;;17.67;72.69;101687.69;5094649;28;20035;-76
2022/09/17 09:17:07;;;;;;;5.68;1.10;;;;;;;19.12;62.75;101695.16;5094379;28;20034;-77
2022/09/17 09:19:42;;;;;;;6.80;1.38;;;;;;;18.19;64.36;101700.03;5095217;28;20040;-75
2022/09/17 09:22:19;;;;;;;9.13;1.70;;;;;;;16.02;72.58;101699.38;5094978;28;20036;-77
2022/09/17 09:24:58;;;;;;;6.13;0.93;;;;;;;14.36;82.99;101698.25;5094527;28;20024;-77
2022/09/17 09:27:27;;;;;;;11.73;1.40;;;;;;;13.27;91.61;101700.94;5094442;28;20039;-77
2022/09/17 09:30:00;;;;;;;8.07;1.27;;;;;;;12.63;97.13;101702.88;5093404;28;20028;-78
2022/09/17 09:32:53;;;;;;;10.38;1.40;;;;;;;13.15;100.00;101693.97;5093215;28;20115;-78
2022/09/17 09:35:26;;;;;;;5.03;1.13;;;;;;;15.77;92.77;101696.41;5093792;28;20028;-81
2022/09/17 09:38:00;;;;;;;9.10;1.52;;;;;;;17.91;74.71;101694.97;5093456;28;20024;-76
2022/09/17 09:40:41;;;;;;;6.85;1.30;;;;;;;17.78;72.21;101687.38;5093438;28;20032;-80
2022/09/17 09:43:18;;;;;;;8.02;1.50;;;;;;;16.37;76.94;101689.56;5093866;28;20035;-81
2022/09/17 09:46:08;;;;;;;10.18;1.65;;;;;;;15.19;84.46;101702.13;5097285;28;20498;-78
2022/09/17 09:48:36;;;;;;;12.35;1.95;;;;;;;14.61;85.84;101702.19;5096958;28;20028;-78
2022/09/17 09:51:13;;;;;;;12.50;1.65;;;;;;;15.06;79.86;101689.91;5079180;28;20127;-79
2022/09/17 09:53:54;;;;;;;12.80;1.77;;;;;;;15.21;76.39;101690.28;5096939;28;20034;-78
2022/09/17 09:56:54;;;;;;;16.45;2.08;;;;;;;15.16;75.60;101690.69;5096741;28;20401;-75
2022/09/17 09:59:19;;;;;;;15.90;1.80;;;;;;;16.31;71.63;101693.72;5097017;28;20034;-78
2022/09/17 10:01:45;;;;;;;8.15;1.45;;;;;;;16.89;67.86;101694.97;5096846;28;20103;-76
2022/09/17 10:04:21;;;;;;;10.40;1.98;;;;;;;18.49;62.62;101687.72;5097381;28;20032;-77
2022/09/17 10:06:49;;;;;;;10.90;1.83;;;;;;;18.47;60.46;101697.00;5096729;28;20024;-77
2022/09/17 10:09:19;;;;;;;15.52;1.88;;;;;;;18.26;64.95;101706.44;5078871;28;20074;-77
2022/09/17 10:12:00;;;;;;;17.85;2.33;;;;;;;16.61;67.13;101714.91;5096606;28;20038;-77
2022/09/17 10:14:28;;;;;;;13.65;1.85;;;;;;;15.37;75.71;101716.41;5096102;28;20031;-72
2022/09/17 10:17:18;;;;;;;9.25;1.63;;;;;;;14.23;80.37;101721.78;5096402;28;20089;-80
2022/09/17 10:19:44;;;;;;;10.65;1.80;;;;;;;13.88;86.96;101720.50;5096775;28;20095;-76
2022/09/17 10:22:24;;;;;;;17.60;1.80;;;;;;;14.78;87.19;101727.38;5095922;28;20107;-77
2022/09/17 10:24:53;;;;;;;12.30;1.50;;;;;;;16.53;73.15;101718.41;5095839;28;20508;-74
2022/09/17 10:27:21;;;;;;;7.90;1.50;;;;;;;18.00;62.91;101711.16;5096344;28;20130;-83
2022/09/17 10:29:50;;;;;;;12.23;1.83;;;;;;;19.22;60.41;101712.00;5095920;28;20028;-80
2022/09/17 10:32:21;;;;;;;15.85;2.50;;;;;;;19.47;53.65;101696.53;5095445;28;20028;-78
2022/09/17 10:35:13;;;;;;;9.60;1.83;;;;;;;18.61;56.15;101698.97;5096152;28;20024;-77
2022/09/17 10:37:44;;;;;;;12.75;2.13;;;;;;;17.81;62.45;101707.75;5077958;28;20020;-77
2022/09/17 10:40:19;;;;;;;12.38;2.47;;;;;;;18.70;60.24;101732.16;5095525;28;20041;-75
2022/09/17 10:42:49;;;;;;;9.43;1.70;;;;;;;17.75;66.06;101711.94;5077231;28;20559;-76
2022/09/17 10:45:29;;;;;;;15.55;2.15;;;;;;;15.99;72.67;101702.34;5095543;28;20472;-77
2022/09/17 10:47:57;;;;;;;12.38;2.20;;;;;;;15.06;79.66;101700.63;5095132;28;20051;-74
2022/09/17 10:50:31;;;;;;;10.30;1.92;;;;;;;15.01;79.67;101708.25;5095191;28;20044;-80
2022/09/17 10:53:01;;;;;;;8.15;1.70;;;;;;;15.05;78.42;101692.72;5095576;28;20043;-76
2022/09/17 10:55:33;;;;;;;5.43;1.53;;;;;;;15.46;71.78;101693.22;5095058;28;20028;-78
2022/09/17 10:58:07;;;;;;;16.05;2.92;;;;;;;15.93;70.18;101695.75;5095088;28;20080;-80
2022/09/17 11:00:33;;;;;;;10.20;1.90;;;;;;;16.28;65.85;101701.25;5095911;28;20027;-77
2022/09/17 11:03:01;;;;;;;9.88;1.83;;;;;;;16.59;59.94;101692.75;5095081;28;20024;-77
2022/09/17 11:06:05;;;;;;;11.52;1.95;;;;;;;16.54;56.31;101691.38;5077509;28;20391;-78
2022/09/17 11:08:45;;;;;;;23.38;2.55;;;;;;;16.38;58.60;101691.25;5096147;28;20483;-77
2022/09/17 11:11:37;;;;;;;17.35;2.35;;;;;;;16.35;58.09;101692.41;5095634;28;20509;-78
2022/09/17 11:14:18;;;;;;;12.27;2.60;;;;;;;16.65;55.24;101676.84;5094919;28;20044;-76
2022/09/17 11:17:10;;;;;;;11.95;2.00;;;;;;;16.56;58.52;101685.84;5095635;28;20035;-79
2022/09/17 11:19:39;;;;;;;13.10;2.28;;;;;;;16.51;62.06;101693.53;5095657;28;20056;-77
2022/09/17 11:22:22;;;;;;;16.38;2.55;;;;;;;16.43;64.83;101690.78;5095254;28;20089;-75
2022/09/17 11:24:54;;;;;;;11.63;2.08;;;;;;;15.69;66.48;101693.66;5095896;28;20028;-76
2022/09/17 11:27:36;;;;;;;17.10;2.58;;;;;;;15.57;69.13;101697.53;5095147;28;20086;-75
2022/09/17 11:30:09;;;;;;;16.70;2.47;;;;;;;15.65;66.21;101692.25;5095560;28;20024;-77
2022/09/17 11:32:48;;;;;;;13.32;2.17;;;;;;;15.34;69.06;101714.88;5095416;28;20517;-76
2022/09/17 11:35:27;;;;;;;23.02;2.88;;;;;;;14.93;73.33;101710.84;5095591;28;20121;-78
2022/09/17 11:38:02;;;;;;;9.50;2.15;;;;;;;14.57;74.36;101707.91;5095321;28;20105;-74